sensor_id;sensor_type;location;lat;lon;timestamp;temperature;humidity
15556;DHT22;7879;48.660;9.116;2023-09-18T00:00:53;17.50;99.90
15556;DHT22;7879;48.660;9.116;2023-09-18T00:03:21;17.50;99.90
15556;DHT22;7879;48.660;9.116;2023-09-18T00:05:52;17.50;99.90
15556;DHT22;7879;48.660;9.116;2023-09-18T00:08:19;17.40;99.90
15556;DHT22;7879;48.660;9.116;2023-09-18T00:10:49;17.40;99.90
15556;DHT22;7879;48.660;9.116;2023-09-18T00:13:17;17.30;99.90
15556;DHT22;7879;48.660;9.116;2023-09-18T00:15:44;17.30;99.90
15556;DHT22;7879;48.660;9.116;2023-09-18T00:18:15;17.30;99.90
15556;DHT22;7879;48.660;9.116;2023-09-18T00:20:43;17.30;99.90
15556;DHT22;7879;48.660;9.116;2023-09-18T00:23:10;17.30;99.90
15556;DHT22;7879;48.660;9.116;2023-09-18T00:25:37;17.20;99.90
15556;DHT22;7879;48.660;9.116;2023-09-18T00:28:04;17.20;99.90
15556;DHT22;7879;48.660;9.116;2023-09-18T00:30:31;17.20;99.90
15556;DHT22;7879;48.660;9.116;2023-09-18T00:32:58;17.20;99.90
15556;DHT22;7879;48.660;9.116;2023-09-18T00:35:25;17.20;99.90
15556;DHT22;7879;48.660;9.116;2023-09-18T00:37:52;17.30;99.90
15556;DHT22;7879;48.660;9.116;2023-09-18T00:40:19;17.30;99.90
15556;DHT22;7879;48.660;9.116;2023-09-18T00:42:46;17.20;99.90
15556;DHT22;7879;48.660;9.116;2023-09-18T00:45:14;17.20;99.90
15556;DHT22;7879;48.660;9.116;2023-09-18T00:47:41;17.20;99.90
15556;DHT22;7879;48.660;9.116;2023-09-18T00:50:11;17.20;99.90
15556;DHT22;7879;48.660;9.116;2023-09-18T00:52:39;17.30;99.90
15556;DHT22;7879;48.660;9.116;2023-09-18T00:55:07;17.20;99.90
15556;DHT22;7879;48.660;9.116;2023-09-18T00:57:34;17.20;99.90
15556;DHT22;7879;48.660;9.116;2023-09-18T01:00:03;17.20;99.90
15556;DHT22;7879;48.660;9.116;2023-09-18T01:02:32;17.20;99.90
15556;DHT22;7879;48.660;9.116;2023-09-18T01:04:59;17.10;99.90
15556;DHT22;7879;48.660;9.116;2023-09-18T01:07:26;17.10;99.90
15556;DHT22;7879;48.660;9.116;2023-09-18T01:09:56;17.10;99.90
15556;DHT22;7879;48.660;9.116;2023-09-18T01:12:33;17.20;99.90
15556;DHT22;7879;48.660;9.116;2023-09-18T01:15:17;17.20;99.90
15556;DHT22;7879;48.660;9.116;2023-09-18T01:17:46;17.20;99.90
15556;DHT22;7879;48.660;9.116;2023-09-18T01:20:13;17.20;99.90
15556;DHT22;7879;48.660;9.116;2023-09-18T01:22:41;17.20;99.90
15556;DHT22;7879;48.660;9.116;2023-09-18T01:25:07;17.10;99.90
15556;DHT22;7879;48.660;9.116;2023-09-18T01:27:35;17.10;99.90
15556;DHT22;7879;48.660;9.116;2023-09-18T01:30:02;17.20;99.90
15556;DHT22;7879;48.660;9.116;2023-09-18T01:32:31;17.20;99.90
15556;DHT22;7879;48.660;9.116;2023-09-18T01:35:00;17.20;99.90
15556;DHT22;7879;48.660;9.116;2023-09-18T01:37:29;17.10;99.90
15556;DHT22;7879;48.660;9.116;2023-09-18T01:39:57;17.10;99.90
15556;DHT22;7879;48.660;9.116;2023-09-18T01:42:27;17.20;99.90
15556;DHT22;7879;48.660;9.116;2023-09-18T01:44:54;17.20;99.90
15556;DHT22;7879;48.660;9.116;2023-09-18T01:47:22;17.20;99.90
15556;DHT22;7879;48.660;9.116;2023-09-18T01:49:54;17.20;99.90
15556;DHT22;7879;48.660;9.116;2023-09-18T01:52:21;17.20;99.90
15556;DHT22;7879;48.660;9.116;2023-09-18T01:54:49;17.20;99.90
15556;DHT22;7879;48.660;9.116;2023-09-18T01:57:15;17.20;99.90
15556;DHT22;7879;48.660;9.116;2023-09-18T01:59:42;17.20;99.90
15556;DHT22;7879;48.660;9.116;2023-09-18T02:02:10;17.30;99.90
15556;DHT22;7879;48.660;9.116;2023-09-18T02:04:42;17.30;99.90
15556;DHT22;7879;48.660;9.116;2023-09-18T02:07:29;17.30;99.90
15556;DHT22;7879;48.660;9.116;2023-09-18T02:09:56;17.50;99.90
15556;DHT22;7879;48.660;9.116;2023-09-18T02:12:23;17.60;99.90
15556;DHT22;7879;48.660;9.116;2023-09-18T02:14:50;17.60;99.90
15556;DHT22;7879;48.660;9.116;2023-09-18T02:17:17;17.70;99.90
15556;DHT22;7879;48.660;9.116;2023-09-18T02:19:44;17.70;99.90
15556;DHT22;7879;48.660;9.116;2023-09-18T02:22:12;17.70;99.90
15556;DHT22;7879;48.660;9.116;2023-09-18T02:24:39;17.60;99.90
15556;DHT22;7879;48.660;9.116;2023-09-18T02:27:06;17.60;99.90
15556;DHT22;7879;48.660;9.116;2023-09-18T02:29:34;17.50;99.90
15556;DHT22;7879;48.660;9.116;2023-09-18T02:32:01;17.50;99.90
15556;DHT22;7879;48.660;9.116;2023-09-18T02:34:31;17.50;99.90
15556;DHT22;7879;48.660;9.116;2023-09-18T02:36:58;17.40;99.90
15556;DHT22;7879;48.660;9.116;2023-09-18T02:39:25;17.40;99.90
15556;DHT22;7879;48.660;9.116;2023-09-18T02:41:52;17.40;99.90
15556;DHT22;7879;48.660;9.116;2023-09-18T02:44:19;17.40;99.90
15556;DHT22;7879;48.660;9.116;2023-09-18T02:46:46;17.40;99.90
15556;DHT22;7879;48.660;9.116;2023-09-18T02:49:13;17.30;99.90
15556;DHT22;7879;48.660;9.116;2023-09-18T02:51:41;17.30;99.90
15556;DHT22;7879;48.660;9.116;2023-09-18T02:54:09;17.30;99.90
15556;DHT22;7879;48.660;9.116;2023-09-18T02:56:36;17.30;99.90
15556;DHT22;7879;48.660;9.116;2023-09-18T02:59:05;17.30;99.90
15556;DHT22;7879;48.660;9.116;2023-09-18T03:01:33;17.30;99.90
15556;DHT22;7879;48.660;9.116;2023-09-18T03:03:59;17.30;99.90
15556;DHT22;7879;48.660;9.116;2023-09-18T03:06:30;17.30;99.90
15556;DHT22;7879;48.660;9.116;2023-09-18T03:08:57;17.30;99.90
15556;DHT22;7879;48.660;9.116;2023-09-18T03:11:24;17.30;99.90
15556;DHT22;7879;48.660;9.116;2023-09-18T03:13:55;17.30;99.90
15556;DHT22;7879;48.660;9.116;2023-09-18T03:16:22;17.20;99.90
15556;DHT22;7879;48.660;9.116;2023-09-18T03:18:49;17.20;99.90
15556;DHT22;7879;48.660;9.116;2023-09-18T03:21:17;17.20;99.90
15556;DHT22;7879;48.660;9.116;2023-09-18T03:23:44;17.20;99.90
15556;DHT22;7879;48.660;9.116;2023-09-18T03:26:10;17.10;99.90
15556;DHT22;7879;48.660;9.116;2023-09-18T03:28:37;17.10;99.90
15556;DHT22;7879;48.660;9.116;2023-09-18T03:31:04;17.00;99.90
15556;DHT22;7879;48.660;9.116;2023-09-18T03:33:33;17.00;99.90
15556;DHT22;7879;48.660;9.116;2023-09-18T03:36:00;17.00;99.90
15556;DHT22;7879;48.660;9.116;2023-09-18T03:38:27;17.00;99.90
15556;DHT22;7879;48.660;9.116;2023-09-18T03:40:59;16.90;99.90
15556;DHT22;7879;48.660;9.116;2023-09-18T03:43:26;16.90;99.90
15556;DHT22;7879;48.660;9.116;2023-09-18T03:45:53;16.90;99.90
15556;DHT22;7879;48.660;9.116;2023-09-18T03:48:20;16.90;99.90
15556;DHT22;7879;48.660;9.116;2023-09-18T03:50:48;17.00;99.90
15556;DHT22;7879;48.660;9.116;2023-09-18T03:53:15;17.00;99.90
15556;DHT22;7879;48.660;9.116;2023-09-18T03:55:42;16.90;99.90
15556;DHT22;7879;48.660;9.116;2023-09-18T03:58:09;17.00;99.90
15556;DHT22;7879;48.660;9.116;2023-09-18T04:00:36;17.00;99.90
15556;DHT22;7879;48.660;9.116;2023-09-18T04:03:04;17.00;99.90
15556;DHT22;7879;48.660;9.116;2023-09-18T04:05:31;17.00;99.90
15556;DHT22;7879;48.660;9.116;2023-09-18T04:07:58;17.00;99.90
15556;DHT22;7879;48.660;9.116;2023-09-18T04:10:26;17.00;99.90
15556;DHT22;7879;48.660;9.116;2023-09-18T04:12:53;17.00;99.90
15556;DHT22;7879;48.660;9.116;2023-09-18T04:15:20;17.00;99.90
15556;DHT22;7879;48.660;9.116;2023-09-18T04:17:47;17.10;99.90
15556;DHT22;7879;48.660;9.116;2023-09-18T04:20:15;17.10;99.90
15556;DHT22;7879;48.660;9.116;2023-09-18T04:22:44;17.20;99.90
15556;DHT22;7879;48.660;9.116;2023-09-18T04:25:13;17.20;99.90
15556;DHT22;7879;48.660;9.116;2023-09-18T04:27:40;17.20;99.90
15556;DHT22;7879;48.660;9.116;2023-09-18T04:30:08;17.20;99.90
15556;DHT22;7879;48.660;9.116;2023-09-18T04:32:40;17.30;99.90
15556;DHT22;7879;48.660;9.116;2023-09-18T04:35:08;17.20;99.90
15556;DHT22;7879;48.660;9.116;2023-09-18T04:37:38;17.30;99.90
15556;DHT22;7879;48.660;9.116;2023-09-18T04:40:06;17.30;99.90
15556;DHT22;7879;48.660;9.116;2023-09-18T04:42:37;17.30;99.90
15556;DHT22;7879;48.660;9.116;2023-09-18T04:45:05;17.30;99.90
15556;DHT22;7879;48.660;9.116;2023-09-18T04:47:32;17.30;99.90
15556;DHT22;7879;48.660;9.116;2023-09-18T04:49:59;17.30;99.90
15556;DHT22;7879;48.660;9.116;2023-09-18T04:52:26;17.30;99.90
15556;DHT22;7879;48.660;9.116;2023-09-18T04:54:52;17.30;99.90
15556;DHT22;7879;48.660;9.116;2023-09-18T04:57:21;17.40;99.90
15556;DHT22;7879;48.660;9.116;2023-09-18T04:59:49;17.40;99.90
15556;DHT22;7879;48.660;9.116;2023-09-18T05:02:27;17.40;99.90
15556;DHT22;7879;48.660;9.116;2023-09-18T05:04:56;17.50;99.90
15556;DHT22;7879;48.660;9.116;2023-09-18T05:07:22;17.50;99.90
15556;DHT22;7879;48.660;9.116;2023-09-18T05:09:49;17.50;99.90
15556;DHT22;7879;48.660;9.116;2023-09-18T05:12:16;17.60;99.90
15556;DHT22;7879;48.660;9.116;2023-09-18T05:14:43;17.60;99.90
15556;DHT22;7879;48.660;9.116;2023-09-18T05:17:13;17.50;99.90
15556;DHT22;7879;48.660;9.116;2023-09-18T05:19:43;17.50;99.90
15556;DHT22;7879;48.660;9.116;2023-09-18T05:22:11;17.50;99.90
15556;DHT22;7879;48.660;9.116;2023-09-18T05:24:38;17.50;99.90
15556;DHT22;7879;48.660;9.116;2023-09-18T05:27:05;17.50;99.90
15556;DHT22;7879;48.660;9.116;2023-09-18T05:29:34;17.40;99.90
15556;DHT22;7879;48.660;9.116;2023-09-18T05:32:04;17.40;99.90
15556;DHT22;7879;48.660;9.116;2023-09-18T05:34:31;17.50;99.90
15556;DHT22;7879;48.660;9.116;2023-09-18T05:36:58;17.40;99.90
15556;DHT22;7879;48.660;9.116;2023-09-18T05:39:25;17.50;99.90
15556;DHT22;7879;48.660;9.116;2023-09-18T05:41:52;17.40;99.90
15556;DHT22;7879;48.660;9.116;2023-09-18T05:44:19;17.40;99.90
15556;DHT22;7879;48.660;9.116;2023-09-18T05:46:46;17.50;99.90
15556;DHT22;7879;48.660;9.116;2023-09-18T05:49:13;17.50;99.90
15556;DHT22;7879;48.660;9.116;2023-09-18T05:51:40;17.60;99.90
15556;DHT22;7879;48.660;9.116;2023-09-18T05:54:06;17.60;99.90
15556;DHT22;7879;48.660;9.116;2023-09-18T05:56:33;17.60;99.90
15556;DHT22;7879;48.660;9.116;2023-09-18T05:59:00;17.60;99.90
15556;DHT22;7879;48.660;9.116;2023-09-18T06:01:27;17.60;99.90
15556;DHT22;7879;48.660;9.116;2023-09-18T06:03:54;17.70;99.90
15556;DHT22;7879;48.660;9.116;2023-09-18T06:06:21;17.70;99.90
15556;DHT22;7879;48.660;9.116;2023-09-18T06:08:48;17.70;99.90
15556;DHT22;7879;48.660;9.116;2023-09-18T06:11:15;17.70;99.90
15556;DHT22;7879;48.660;9.116;2023-09-18T06:13:42;17.70;99.90
15556;DHT22;7879;48.660;9.116;2023-09-18T06:16:09;17.70;99.90
15556;DHT22;7879;48.660;9.116;2023-09-18T06:18:36;17.60;99.90
15556;DHT22;7879;48.660;9.116;2023-09-18T06:21:05;17.70;99.90
15556;DHT22;7879;48.660;9.116;2023-09-18T06:23:32;17.60;99.90
15556;DHT22;7879;48.660;9.116;2023-09-18T06:25:59;17.70;99.90
15556;DHT22;7879;48.660;9.116;2023-09-18T06:28:26;17.70;99.90
15556;DHT22;7879;48.660;9.116;2023-09-18T06:30:53;17.70;99.90
15556;DHT22;7879;48.660;9.116;2023-09-18T06:33:22;17.70;99.90
15556;DHT22;7879;48.660;9.116;2023-09-18T06:35:49;17.70;99.90
15556;DHT22;7879;48.660;9.116;2023-09-18T06:38:18;17.70;99.90
15556;DHT22;7879;48.660;9.116;2023-09-18T06:40:46;17.80;99.90
15556;DHT22;7879;48.660;9.116;2023-09-18T06:43:14;17.80;99.90
15556;DHT22;7879;48.660;9.116;2023-09-18T06:45:41;17.80;99.90
15556;DHT22;7879;48.660;9.116;2023-09-18T06:48:08;17.80;99.90
15556;DHT22;7879;48.660;9.116;2023-09-18T06:50:35;17.80;99.90
15556;DHT22;7879;48.660;9.116;2023-09-18T06:53:03;17.80;99.90
15556;DHT22;7879;48.660;9.116;2023-09-18T06:55:30;17.80;99.90
15556;DHT22;7879;48.660;9.116;2023-09-18T06:57:56;17.80;99.90
15556;DHT22;7879;48.660;9.116;2023-09-18T07:00:23;17.80;99.90
15556;DHT22;7879;48.660;9.116;2023-09-18T07:02:51;17.90;99.90
15556;DHT22;7879;48.660;9.116;2023-09-18T07:05:19;17.90;99.90
15556;DHT22;7879;48.660;9.116;2023-09-18T07:07:46;17.90;99.90
15556;DHT22;7879;48.660;9.116;2023-09-18T07:10:13;18.00;99.90
15556;DHT22;7879;48.660;9.116;2023-09-18T07:12:40;18.00;99.90
15556;DHT22;7879;48.660;9.116;2023-09-18T07:15:07;18.00;99.90
15556;DHT22;7879;48.660;9.116;2023-09-18T07:17:34;18.00;99.90
15556;DHT22;7879;48.660;9.116;2023-09-18T07:20:02;18.10;99.90
15556;DHT22;7879;48.660;9.116;2023-09-18T07:22:45;18.10;99.90
15556;DHT22;7879;48.660;9.116;2023-09-18T07:25:12;18.10;99.90
15556;DHT22;7879;48.660;9.116;2023-09-18T07:27:39;18.10;99.90
15556;DHT22;7879;48.660;9.116;2023-09-18T07:30:11;18.20;99.90
15556;DHT22;7879;48.660;9.116;2023-09-18T07:32:41;18.20;99.90
15556;DHT22;7879;48.660;9.116;2023-09-18T07:35:10;18.20;99.90
15556;DHT22;7879;48.660;9.116;2023-09-18T07:37:37;18.20;99.90
15556;DHT22;7879;48.660;9.116;2023-09-18T07:40:05;18.20;99.90
15556;DHT22;7879;48.660;9.116;2023-09-18T07:42:32;18.30;99.90
15556;DHT22;7879;48.660;9.116;2023-09-18T07:44:59;18.30;99.90
15556;DHT22;7879;48.660;9.116;2023-09-18T07:47:26;18.40;99.90
15556;DHT22;7879;48.660;9.116;2023-09-18T07:49:53;18.40;99.90
15556;DHT22;7879;48.660;9.116;2023-09-18T07:52:23;18.40;99.90
15556;DHT22;7879;48.660;9.116;2023-09-18T07:54:50;18.40;99.90
15556;DHT22;7879;48.660;9.116;2023-09-18T07:57:16;18.50;99.90
15556;DHT22;7879;48.660;9.116;2023-09-18T07:59:45;18.60;99.90
15556;DHT22;7879;48.660;9.116;2023-09-18T08:02:13;18.60;99.90
15556;DHT22;7879;48.660;9.116;2023-09-18T08:04:39;18.50;99.90
15556;DHT22;7879;48.660;9.116;2023-09-18T08:07:07;18.60;99.90
15556;DHT22;7879;48.660;9.116;2023-09-18T08:09:34;18.60;99.90
15556;DHT22;7879;48.660;9.116;2023-09-18T08:12:06;18.60;99.90
15556;DHT22;7879;48.660;9.116;2023-09-18T08:14:33;18.60;99.90
15556;DHT22;7879;48.660;9.116;2023-09-18T08:17:03;18.70;99.90
15556;DHT22;7879;48.660;9.116;2023-09-18T08:19:33;18.70;99.90
15556;DHT22;7879;48.660;9.116;2023-09-18T08:22:00;18.60;99.90
15556;DHT22;7879;48.660;9.116;2023-09-18T08:24:30;18.60;99.90
15556;DHT22;7879;48.660;9.116;2023-09-18T08:26:57;18.60;99.90
15556;DHT22;7879;48.660;9.116;2023-09-18T08:29:24;18.60;99.90
15556;DHT22;7879;48.660;9.116;2023-09-18T08:31:51;18.60;99.90
15556;DHT22;7879;48.660;9.116;2023-09-18T08:34:18;18.50;99.90
15556;DHT22;7879;48.660;9.116;2023-09-18T08:36:48;18.50;99.90
15556;DHT22;7879;48.660;9.116;2023-09-18T08:39:15;18.40;99.90
15556;DHT22;7879;48.660;9.116;2023-09-18T08:41:43;18.40;99.90
15556;DHT22;7879;48.660;9.116;2023-09-18T08:44:10;18.30;99.90
15556;DHT22;7879;48.660;9.116;2023-09-18T08:46:37;18.20;99.90
15556;DHT22;7879;48.660;9.116;2023-09-18T08:49:04;18.20;99.90
15556;DHT22;7879;48.660;9.116;2023-09-18T08:51:32;18.00;99.90
15556;DHT22;7879;48.660;9.116;2023-09-18T08:54:00;18.00;99.90
15556;DHT22;7879;48.660;9.116;2023-09-18T08:56:27;18.00;99.90
15556;DHT22;7879;48.660;9.116;2023-09-18T08:58:55;17.90;99.90
15556;DHT22;7879;48.660;9.116;2023-09-18T09:01:23;17.90;99.90
15556;DHT22;7879;48.660;9.116;2023-09-18T09:03:50;17.90;99.90
15556;DHT22;7879;48.660;9.116;2023-09-18T09:06:17;17.90;99.90
15556;DHT22;7879;48.660;9.116;2023-09-18T09:08:44;17.80;99.90
15556;DHT22;7879;48.660;9.116;2023-09-18T09:11:11;17.80;99.90
15556;DHT22;7879;48.660;9.116;2023-09-18T09:13:37;17.80;99.90
15556;DHT22;7879;48.660;9.116;2023-09-18T09:16:12;17.80;99.90
15556;DHT22;7879;48.660;9.116;2023-09-18T09:18:50;17.80;99.90
15556;DHT22;7879;48.660;9.116;2023-09-18T09:21:18;17.80;99.90
15556;DHT22;7879;48.660;9.116;2023-09-18T09:23:50;17.80;99.90
15556;DHT22;7879;48.660;9.116;2023-09-18T09:26:22;17.90;99.90
15556;DHT22;7879;48.660;9.116;2023-09-18T09:28:50;17.90;99.90
15556;DHT22;7879;48.660;9.116;2023-09-18T09:31:29;17.90;99.90
15556;DHT22;7879;48.660;9.116;2023-09-18T09:33:57;17.90;99.90
15556;DHT22;7879;48.660;9.116;2023-09-18T09:36:25;18.00;99.90
15556;DHT22;7879;48.660;9.116;2023-09-18T09:38:55;17.90;99.90
15556;DHT22;7879;48.660;9.116;2023-09-18T09:41:25;17.90;99.90
15556;DHT22;7879;48.660;9.116;2023-09-18T09:43:55;17.90;99.90
15556;DHT22;7879;48.660;9.116;2023-09-18T09:46:23;17.90;99.90
15556;DHT22;7879;48.660;9.116;2023-09-18T09:49:03;18.00;99.90
15556;DHT22;7879;48.660;9.116;2023-09-18T09:51:31;18.00;99.90
15556;DHT22;7879;48.660;9.116;2023-09-18T09:53:59;18.00;99.90
15556;DHT22;7879;48.660;9.116;2023-09-18T09:57:01;18.00;99.90
15556;DHT22;7879;48.660;9.116;2023-09-18T09:59:29;18.10;99.90
15556;DHT22;7879;48.660;9.116;2023-09-18T10:02:00;18.10;99.90
15556;DHT22;7879;48.660;9.116;2023-09-18T10:04:31;18.20;99.90
15556;DHT22;7879;48.660;9.116;2023-09-18T10:07:05;18.20;99.90
15556;DHT22;7879;48.660;9.116;2023-09-18T10:09:41;18.20;99.90
15556;DHT22;7879;48.660;9.116;2023-09-18T10:12:12;18.20;99.90
15556;DHT22;7879;48.660;9.116;2023-09-18T10:14:43;18.10;99.90
15556;DHT22;7879;48.660;9.116;2023-09-18T10:17:27;18.10;99.90
15556;DHT22;7879;48.660;9.116;2023-09-18T10:20:09;18.00;99.90
15556;DHT22;7879;48.660;9.116;2023-09-18T10:22:45;18.00;99.90
15556;DHT22;7879;48.660;9.116;2023-09-18T10:25:14;18.00;99.90
15556;DHT22;7879;48.660;9.116;2023-09-18T10:27:47;18.00;99.90
15556;DHT22;7879;48.660;9.116;2023-09-18T10:30:16;18.10;99.90
15556;DHT22;7879;48.660;9.116;2023-09-18T10:32:46;18.00;99.90
15556;DHT22;7879;48.660;9.116;2023-09-18T10:35:15;18.00;99.90
15556;DHT22;7879;48.660;9.116;2023-09-18T10:37:42;18.00;99.90
15556;DHT22;7879;48.660;9.116;2023-09-18T10:40:12;17.90;99.90
15556;DHT22;7879;48.660;9.116;2023-09-18T10:42:41;17.90;99.90
15556;DHT22;7879;48.660;9.116;2023-09-18T10:45:10;17.90;99.90
15556;DHT22;7879;48.660;9.116;2023-09-18T10:47:42;17.90;99.90
15556;DHT22;7879;48.660;9.116;2023-09-18T10:50:12;17.90;99.90
15556;DHT22;7879;48.660;9.116;2023-09-18T10:52:43;17.90;99.90
15556;DHT22;7879;48.660;9.116;2023-09-18T10:55:14;17.90;99.90
15556;DHT22;7879;48.660;9.116;2023-09-18T10:57:52;17.90;99.90
15556;DHT22;7879;48.660;9.116;2023-09-18T11:00:19;17.90;99.90
15556;DHT22;7879;48.660;9.116;2023-09-18T11:02:52;17.90;99.90
15556;DHT22;7879;48.660;9.116;2023-09-18T11:05:35;17.90;99.90
15556;DHT22;7879;48.660;9.116;2023-09-18T11:08:28;17.80;99.90
15556;DHT22;7879;48.660;9.116;2023-09-18T11:13:41;17.80;99.90
15556;DHT22;7879;48.660;9.116;2023-09-18T11:21:28;17.90;99.90
15556;DHT22;7879;48.660;9.116;2023-09-18T11:24:02;17.90;99.90
15556;DHT22;7879;48.660;9.116;2023-09-18T11:26:36;17.80;99.90
15556;DHT22;7879;48.660;9.116;2023-09-18T11:29:11;17.90;99.90
15556;DHT22;7879;48.660;9.116;2023-09-18T11:31:42;17.80;99.90
15556;DHT22;7879;48.660;9.116;2023-09-18T11:34:35;17.90;99.90
15556;DHT22;7879;48.660;9.116;2023-09-18T11:37:20;17.90;99.90
15556;DHT22;7879;48.660;9.116;2023-09-18T11:39:47;17.90;99.90
15556;DHT22;7879;48.660;9.116;2023-09-18T11:42:18;17.90;99.90
15556;DHT22;7879;48.660;9.116;2023-09-18T11:44:46;17.90;99.90
15556;DHT22;7879;48.660;9.116;2023-09-18T11:47:16;17.90;99.90
15556;DHT22;7879;48.660;9.116;2023-09-18T11:49:57;17.90;99.90
15556;DHT22;7879;48.660;9.116;2023-09-18T11:52:29;17.90;99.90
15556;DHT22;7879;48.660;9.116;2023-09-18T11:54:58;17.90;99.90
15556;DHT22;7879;48.660;9.116;2023-09-18T11:57:26;18.00;99.90
15556;DHT22;7879;48.660;9.116;2023-09-18T11:59:55;18.00;99.90
15556;DHT22;7879;48.660;9.116;2023-09-18T12:02:27;18.00;99.90
15556;DHT22;7879;48.660;9.116;2023-09-18T12:04:55;18.00;99.90
15556;DHT22;7879;48.660;9.116;2023-09-18T12:07:23;18.00;99.90
15556;DHT22;7879;48.660;9.116;2023-09-18T12:09:51;18.10;99.90
15556;DHT22;7879;48.660;9.116;2023-09-18T12:12:18;18.10;99.90
15556;DHT22;7879;48.660;9.116;2023-09-18T12:14:45;18.10;99.90
15556;DHT22;7879;48.660;9.116;2023-09-18T12:17:15;18.10;99.90
15556;DHT22;7879;48.660;9.116;2023-09-18T12:19:53;18.10;99.90
15556;DHT22;7879;48.660;9.116;2023-09-18T12:22:27;18.10;99.90
15556;DHT22;7879;48.660;9.116;2023-09-18T12:25:07;18.10;99.90
15556;DHT22;7879;48.660;9.116;2023-09-18T12:27:41;18.20;99.90
15556;DHT22;7879;48.660;9.116;2023-09-18T12:30:09;18.20;99.90
15556;DHT22;7879;48.660;9.116;2023-09-18T12:32:36;18.20;99.90
15556;DHT22;7879;48.660;9.116;2023-09-18T12:35:06;18.30;99.90
15556;DHT22;7879;48.660;9.116;2023-09-18T12:37:40;18.40;99.90
15556;DHT22;7879;48.660;9.116;2023-09-18T12:40:25;18.40;99.90
15556;DHT22;7879;48.660;9.116;2023-09-18T12:42:55;18.50;99.90
15556;DHT22;7879;48.660;9.116;2023-09-18T12:45:24;18.60;99.90
15556;DHT22;7879;48.660;9.116;2023-09-18T12:47:51;18.70;99.90
15556;DHT22;7879;48.660;9.116;2023-09-18T12:50:18;18.80;99.90
15556;DHT22;7879;48.660;9.116;2023-09-18T12:52:46;18.90;99.90
15556;DHT22;7879;48.660;9.116;2023-09-18T12:55:26;19.00;99.90
15556;DHT22;7879;48.660;9.116;2023-09-18T12:57:54;19.00;99.90
15556;DHT22;7879;48.660;9.116;2023-09-18T13:00:21;19.10;99.90
15556;DHT22;7879;48.660;9.116;2023-09-18T13:02:53;19.10;99.90
15556;DHT22;7879;48.660;9.116;2023-09-18T13:05:24;19.20;99.90
15556;DHT22;7879;48.660;9.116;2023-09-18T13:07:53;19.20;99.90
15556;DHT22;7879;48.660;9.116;2023-09-18T13:10:20;19.20;99.90
15556;DHT22;7879;48.660;9.116;2023-09-18T13:12:53;19.20;99.90
15556;DHT22;7879;48.660;9.116;2023-09-18T13:15:31;19.30;99.90
15556;DHT22;7879;48.660;9.116;2023-09-18T13:18:00;19.30;99.90
15556;DHT22;7879;48.660;9.116;2023-09-18T13:20:29;19.30;99.90
15556;DHT22;7879;48.660;9.116;2023-09-18T13:22:58;19.30;99.90
15556;DHT22;7879;48.660;9.116;2023-09-18T13:25:40;19.40;99.90
15556;DHT22;7879;48.660;9.116;2023-09-18T13:28:11;19.40;99.90
15556;DHT22;7879;48.660;9.116;2023-09-18T13:30:41;19.50;99.90
15556;DHT22;7879;48.660;9.116;2023-09-18T13:33:13;19.70;99.90
15556;DHT22;7879;48.660;9.116;2023-09-18T13:35:42;19.80;99.90
15556;DHT22;7879;48.660;9.116;2023-09-18T13:38:10;19.90;99.90
15556;DHT22;7879;48.660;9.116;2023-09-18T13:40:39;19.80;99.90
15556;DHT22;7879;48.660;9.116;2023-09-18T13:43:07;19.80;99.90
15556;DHT22;7879;48.660;9.116;2023-09-18T13:45:34;19.80;99.90
15556;DHT22;7879;48.660;9.116;2023-09-18T13:48:05;19.80;99.90
15556;DHT22;7879;48.660;9.116;2023-09-18T13:50:33;19.70;99.90
15556;DHT22;7879;48.660;9.116;2023-09-18T13:53:01;19.70;99.90
15556;DHT22;7879;48.660;9.116;2023-09-18T13:55:31;19.70;99.90
15556;DHT22;7879;48.660;9.116;2023-09-18T13:57:58;19.70;99.90
15556;DHT22;7879;48.660;9.116;2023-09-18T14:00:25;19.70;99.90
15556;DHT22;7879;48.660;9.116;2023-09-18T14:02:53;19.70;99.90
15556;DHT22;7879;48.660;9.116;2023-09-18T14:05:20;19.80;99.90
15556;DHT22;7879;48.660;9.116;2023-09-18T14:07:47;19.70;99.90
15556;DHT22;7879;48.660;9.116;2023-09-18T14:10:14;19.70;99.90
15556;DHT22;7879;48.660;9.116;2023-09-18T14:12:42;19.80;99.90
15556;DHT22;7879;48.660;9.116;2023-09-18T14:15:10;19.80;99.90
15556;DHT22;7879;48.660;9.116;2023-09-18T14:17:37;19.80;99.90
15556;DHT22;7879;48.660;9.116;2023-09-18T14:20:05;19.80;99.90
15556;DHT22;7879;48.660;9.116;2023-09-18T14:22:35;19.90;99.90
15556;DHT22;7879;48.660;9.116;2023-09-18T14:25:02;19.90;99.90
15556;DHT22;7879;48.660;9.116;2023-09-18T14:27:33;19.90;99.90
15556;DHT22;7879;48.660;9.116;2023-09-18T14:30:03;19.90;99.90
15556;DHT22;7879;48.660;9.116;2023-09-18T14:32:34;19.90;99.90
15556;DHT22;7879;48.660;9.116;2023-09-18T14:35:05;19.90;99.90
15556;DHT22;7879;48.660;9.116;2023-09-18T14:37:35;19.90;99.90
15556;DHT22;7879;48.660;9.116;2023-09-18T14:40:03;20.00;99.90
15556;DHT22;7879;48.660;9.116;2023-09-18T14:42:30;20.00;99.90
15556;DHT22;7879;48.660;9.116;2023-09-18T14:44:57;20.10;99.90
15556;DHT22;7879;48.660;9.116;2023-09-18T14:47:24;20.00;99.90
15556;DHT22;7879;48.660;9.116;2023-09-18T14:49:51;20.10;99.90
15556;DHT22;7879;48.660;9.116;2023-09-18T14:52:18;20.10;99.90
15556;DHT22;7879;48.660;9.116;2023-09-18T14:54:46;20.10;99.90
15556;DHT22;7879;48.660;9.116;2023-09-18T14:57:13;20.20;99.90
15556;DHT22;7879;48.660;9.116;2023-09-18T14:59:40;20.20;99.90
15556;DHT22;7879;48.660;9.116;2023-09-18T15:02:14;20.30;99.90
15556;DHT22;7879;48.660;9.116;2023-09-18T15:04:42;20.30;99.90
15556;DHT22;7879;48.660;9.116;2023-09-18T15:07:09;20.20;99.90
15556;DHT22;7879;48.660;9.116;2023-09-18T15:09:37;20.20;99.90
15556;DHT22;7879;48.660;9.116;2023-09-18T15:12:05;20.10;99.90
15556;DHT22;7879;48.660;9.116;2023-09-18T15:14:35;20.10;99.90
15556;DHT22;7879;48.660;9.116;2023-09-18T15:17:03;20.10;99.90
15556;DHT22;7879;48.660;9.116;2023-09-18T15:19:29;20.10;99.90
15556;DHT22;7879;48.660;9.116;2023-09-18T15:22:02;20.00;99.90
15556;DHT22;7879;48.660;9.116;2023-09-18T15:24:41;20.00;99.90
15556;DHT22;7879;48.660;9.116;2023-09-18T15:27:08;20.00;99.90
15556;DHT22;7879;48.660;9.116;2023-09-18T15:29:35;20.10;99.90
15556;DHT22;7879;48.660;9.116;2023-09-18T15:32:02;20.10;99.90
15556;DHT22;7879;48.660;9.116;2023-09-18T15:34:43;20.10;99.90
15556;DHT22;7879;48.660;9.116;2023-09-18T15:37:27;20.10;99.90
15556;DHT22;7879;48.660;9.116;2023-09-18T15:39:54;20.00;99.90
15556;DHT22;7879;48.660;9.116;2023-09-18T15:42:21;19.90;99.90
15556;DHT22;7879;48.660;9.116;2023-09-18T15:44:48;19.90;99.90
15556;DHT22;7879;48.660;9.116;2023-09-18T15:47:15;19.90;99.90
15556;DHT22;7879;48.660;9.116;2023-09-18T15:49:42;19.90;99.90
15556;DHT22;7879;48.660;9.116;2023-09-18T15:52:08;20.00;99.90
15556;DHT22;7879;48.660;9.116;2023-09-18T15:54:35;20.00;99.90
15556;DHT22;7879;48.660;9.116;2023-09-18T15:57:02;20.00;99.90
15556;DHT22;7879;48.660;9.116;2023-09-18T15:59:29;20.00;99.90
15556;DHT22;7879;48.660;9.116;2023-09-18T16:01:57;20.00;99.90
15556;DHT22;7879;48.660;9.116;2023-09-18T16:04:24;19.90;99.90